Latest Weather Observations for Point Perpendicular

IDN60801

Issued at 9:05 am EST Saturday 23 August 2014 (issued every 30 minutes, with the page automatically refreshed every 10 minutes)

About weather observations | Map of weather stations | Latest weather observations for NSW | Other Formats
Station Details ID: 068151 Name: POINT PERPENDICULAR AWS Lat: -35.09 Lon: 150.80 Height: 85.0 m
Data from the previous 72 hours. | See also: Recent months at Point Perpendicular
Date/Time
EST
Temp
°C
App
Temp
°C
Dew
Point
Rel
Hum
%
Delta-T
°C
Wind Press
QNH
hPa
Press
MSL
hPa
Rain
since 9 am
mm
Dir
 
Spd
km/h
Gust
km/h
Spd
kts
Gust
kts
23/08:30am 13.2 12.3 12.6 96 0.3 WSW 9 15 5 8 1031.6 - 17.8
23/08:00am 13.0 12.5 12.5 97 0.3 SW 7 11 4 6 1031.5 1031.5 17.8
23/07:30am 13.0 12.1 12.7 98 0.2 SW 9 13 5 7 1031.1 - 17.8
23/07:00am 12.8 11.1 12.6 99 0.1 SW 13 20 7 11 1030.8 1030.8 17.8
23/06:30am 12.7 11.4 12.5 99 0.1 SSW 11 15 6 8 1030.6 - 17.4
23/06:00am 12.4 11.3 12.1 98 0.2 SW 9 13 5 7 1030.5 1030.5 17.4
23/05:30am 12.4 11.7 12.1 98 0.2 SW 7 9 4 5 1030.3 - 17.4
23/05:00am 12.6 11.6 12.3 98 0.2 SW 9 11 5 6 1030.0 1030.0 17.4
23/04:30am 12.7 11.8 12.5 99 0.1 SW 9 13 5 7 1029.8 - 17.2
23/04:00am 12.8 11.4 12.3 97 0.3 S 11 15 6 8 1029.8 1029.8 17.2
23/03:30am 12.6 12.2 12.3 98 0.2 SSW 6 7 3 4 1029.9 - 17.0
23/03:00am 12.5 11.9 12.3 99 0.1 SSW 7 9 4 5 1030.0 1030.0 17.0
23/02:30am 12.6 12.0 12.4 99 0.1 SSW 7 11 4 6 1030.3 - 16.8
23/02:00am 12.6 12.0 12.4 99 0.1 SSW 7 13 4 7 1030.5 1030.5 16.2
23/01:30am 12.6 12.0 12.4 99 0.1 SW 7 11 4 6 1030.8 - 13.0
23/01:00am 12.6 12.0 12.4 99 0.1 SSW 7 11 4 6 1030.9 1030.9 12.0
23/12:30am 12.6 12.2 12.3 98 0.2 SSW 6 7 3 4 1031.1 - 5.8
23/12:00am 12.7 12.1 12.4 98 0.2 SSW 7 9 4 5 1031.0 1031.0 5.0
 
Date/Time
EST
Temp
°C
App
Temp
°C
Dew
Point
Rel
Hum
%
Delta-T
°C
Wind Press
QNH
hPa
Press
MSL
hPa
Rain
since 9 am
mm
Dir
 
Spd
km/h
Gust
km/h
Spd
kts
Gust
kts
22/11:30pm 12.6 11.5 12.1 97 0.3 SW 9 11 5 6 1031.0 - 5.0
22/11:00pm 13.1 12.7 12.5 96 0.3 WSW 6 9 3 5 1031.5 1031.5 4.4
22/10:30pm 13.1 12.7 12.3 95 0.4 WSW 6 9 3 5 1031.6 - 3.2
22/10:00pm 13.0 11.7 12.4 96 0.3 WSW 11 15 6 8 1031.5 1031.5 2.4
22/09:30pm 12.8 12.1 11.9 94 0.5 WNW 7 11 4 6 1031.4 - 2.4
22/09:00pm 14.0 13.0 12.2 89 1.0 WNW 9 11 5 6 1031.4 1031.4 1.2
22/08:30pm 13.9 14.5 11.9 88 1.1 CALM 0 0 0 0 1031.4 - 1.2
22/08:00pm 13.9 14.6 12.3 90 0.9 CALM 0 6 0 3 1031.3 1031.3 1.2
22/07:30pm 14.0 12.9 11.9 87 1.1 SSE 9 17 5 9 1031.2 - 1.2
22/07:00pm 13.8 12.6 11.7 87 1.1 S 9 15 5 8 1031.0 1031.0 1.2
22/06:30pm 13.6 11.7 11.7 88 1.0 S 13 22 7 12 1030.7 - 1.2
22/06:00pm 13.7 12.1 11.7 88 1.1 S 11 17 6 9 1030.5 1030.5 1.2
22/05:30pm 13.7 12.3 12.1 90 0.9 SSE 11 17 6 9 1030.3 - 1.2
22/05:00pm 13.3 12.1 11.7 90 0.9 S 9 15 5 8 1030.1 1030.1 1.2
22/04:30pm 13.5 11.7 12.2 92 0.7 S 13 22 7 12 1029.9 - 1.2
22/04:00pm 13.3 10.6 11.7 90 0.9 SSE 17 24 9 13 1029.9 1029.9 1.2
22/03:30pm 13.6 11.5 12.3 92 0.7 S 15 24 8 13 1029.8 - 1.0
22/03:00pm 13.8 10.7 11.7 87 1.1 SE 19 26 10 14 1029.8 1029.8 1.0
22/02:30pm 13.7 10.7 11.9 89 1.0 S 19 30 10 16 1029.9 - 1.0
22/02:00pm 13.5 11.6 11.9 90 0.9 S 13 17 7 9 1030.3 1030.3 1.0
22/01:30pm 14.4 12.3 11.2 81 1.7 S 13 22 7 12 1030.5 - 1.0
22/01:00pm 14.1 11.3 11.4 84 1.4 S 17 24 9 13 1030.8 1030.8 1.0
22/12:30pm 14.2 12.3 11.9 86 1.2 SSE 13 22 7 12 1031.1 - 1.0
22/12:00pm 14.6 12.5 11.2 80 1.8 SE 13 24 7 13 1031.7 1031.7 1.0
22/11:30am 13.6 11.7 11.7 88 1.0 SE 13 24 7 13 1031.9 - 1.0
22/11:00am 14.5 12.7 9.5 72 2.6 S 9 13 5 7 1032.3 1032.3 0.0
22/10:30am 14.7 13.1 10.3 75 2.3 SSE 9 15 5 8 1032.6 - 0.0
22/10:00am 14.0 12.4 11.5 85 1.3 SE 11 22 6 12 1032.7 1032.7 0.0
22/09:30am 13.3 11.9 10.8 85 1.3 SSW 9 13 5 7 1032.6 - 0.0
22/09:00am 13.2 11.3 10.4 83 1.4 S 11 20 6 11 1032.5 1032.5 27.2
22/08:30am 12.6 11.4 11.5 93 0.6 SSW 9 15 5 8 1032.2 - 27.2
22/08:00am 12.4 10.7 11.1 92 0.7 WSW 11 15 6 8 1032.1 1032.1 27.2
22/07:30am 12.4 11.0 11.0 91 0.7 WSW 9 17 5 9 1031.9 - 27.2
22/07:00am 12.6 10.8 11.0 90 0.8 SSW 11 15 6 8 1031.6 1031.6 27.2
22/06:30am 12.6 11.6 10.3 86 1.2 WSW 6 13 3 7 1031.1 - 23.4
22/06:00am 13.8 12.4 8.8 72 2.5 W 6 13 3 7 1030.9 1030.9 23.4
22/05:30am 13.8 11.9 7.6 66 3.1 SE 7 13 4 7 1030.6 - 23.4
22/05:00am 13.7 11.6 8.1 69 2.8 SE 9 15 5 8 1030.5 1030.5 23.4
22/04:30am 13.6 11.4 7.8 68 2.9 SE 9 17 5 9 1030.4 - 23.4
22/04:00am 13.6 12.0 8.9 73 2.4 SE 7 15 4 8 1030.3 1030.3 23.4
22/03:30am 13.6 11.7 9.1 74 2.3 SE 9 15 5 8 1030.2 - 23.4
22/03:00am 13.5 11.4 8.4 71 2.5 SE 9 15 5 8 1030.2 1030.2 23.4
22/02:30am 13.6 11.7 8.9 73 2.4 SE 9 17 5 9 1030.4 - 23.4
22/02:00am 13.2 10.7 9.8 80 1.7 ESE 13 26 7 14 1030.8 1030.8 23.4
22/01:30am 13.3 10.9 10.1 81 1.7 E 13 22 7 12 1031.0 - 23.4
22/01:00am 13.3 11.3 10.1 81 1.6 E 11 20 6 11 1031.2 1031.2 23.4
22/12:30am 13.8 11.4 8.6 71 2.6 ESE 11 22 6 12 1031.0 - 23.4
22/12:00am 13.8 11.3 8.4 70 2.7 ESE 11 20 6 11 1031.0 1031.0 23.4
 
Date/Time
EST
Temp
°C
App
Temp
°C
Dew
Point
Rel
Hum
%
Delta-T
°C
Wind Press
QNH
hPa
Press
MSL
hPa
Rain
since 9 am
mm
Dir
 
Spd
km/h
Gust
km/h
Spd
kts
Gust
kts
21/11:30pm 13.3 11.6 9.7 79 1.9 ESE 9 17 5 9 1031.1 - 23.4
21/11:00pm 12.7 9.6 10.4 86 1.2 SE 17 30 9 16 1031.0 1031.0 23.0
21/10:30pm 13.7 11.1 9.4 75 2.2 E 13 20 7 11 1030.9 - 23.0
21/10:00pm 12.8 11.5 10.0 83 1.4 SE 7 15 4 8 1031.3 1031.3 23.0
21/09:30pm 13.8 11.4 8.6 71 2.6 SE 11 17 6 9 1031.0 - 23.0
21/09:00pm 13.9 12.0 9.1 73 2.4 SE 9 17 5 9 1031.0 1031.0 23.0
21/08:30pm 13.9 11.2 8.9 72 2.5 SE 13 22 7 12 1030.8 - 23.0
21/08:00pm 14.1 11.5 9.5 74 2.3 SE 13 22 7 12 1030.5 1030.5 23.0
21/07:30pm 13.9 11.3 9.3 74 2.4 SE 13 22 7 12 1030.5 - 22.8
21/07:00pm 13.9 11.2 9.1 73 2.4 SE 13 22 7 12 1030.0 1030.0 22.6
21/06:30pm 13.9 11.3 9.3 74 2.4 SSE 13 20 7 11 1029.9 - 22.6
21/06:00pm 13.8 11.4 8.8 72 2.5 SSE 11 20 6 11 1029.7 1029.7 22.6
21/05:30pm 13.8 10.4 7.8 67 3.0 SSE 15 22 8 12 1029.4 - 22.6
21/05:00pm 14.0 10.5 8.8 71 2.6 SSE 17 24 9 13 1028.9 1028.9 22.6
21/04:30pm 14.2 11.0 8.6 69 2.8 SSE 15 22 8 12 1028.7 - 22.6
21/04:00pm 14.2 11.4 8.6 69 2.8 SSE 13 22 7 12 1028.4 1028.4 22.6
21/03:30pm 14.1 11.5 9.3 73 2.5 SSE 13 22 7 12 1028.3 - 22.6
21/03:00pm 13.5 13.7 11.7 89 1.0 W 2 9 1 5 1028.0 1028.0 22.6
21/02:30pm 12.2 10.4 10.8 91 0.7 SW 11 22 6 12 1028.5 - 22.6
21/02:00pm 12.5 10.0 11.2 92 0.7 S 15 28 8 15 1028.8 1028.8 9.6
21/01:30pm 13.0 9.4 10.5 85 1.3 SSW 20 30 11 16 1028.6 - 2.0
21/01:00pm 13.3 9.8 11.0 86 1.2 SSW 20 32 11 17 1028.5 1028.5 2.0
21/12:30pm 12.9 9.6 10.8 87 1.1 SW 19 30 10 16 1029.0 - 2.0
21/12:00pm 12.8 10.6 10.7 87 1.1 SW 13 20 7 11 1029.5 1029.5 2.0
21/11:30am 12.1 10.0 11.0 93 0.6 WSW 13 20 7 11 1030.0 - 2.0
21/11:00am 11.6 10.1 10.5 93 0.6 S 9 17 5 9 1030.2 1030.2 2.0
21/10:30am 12.0 9.4 10.6 91 0.7 SSW 15 24 8 13 1030.0 - 0.0
21/10:00am 11.8 8.4 10.4 91 0.7 SW 19 28 10 15 1030.0 1030.0 0.0
21/09:30am 11.4 8.3 10.3 93 0.6 SW 17 26 9 14 1029.9 - 0.0
21/09:00am 11.5 9.7 10.7 95 0.4 SW 11 22 6 12 1029.7 1029.7 7.0
21/08:30am 11.7 10.3 10.8 94 0.5 W 9 15 5 8 1029.5 - 6.4
21/08:00am 10.9 7.7 10.0 94 0.5 SSW 17 30 9 16 1029.6 1029.6 4.6
21/07:30am 10.8 8.1 10.2 96 0.3 SW 15 24 8 13 1029.2 - 3.6
21/07:00am 10.8 7.7 10.2 96 0.3 SSW 17 26 9 14 1028.8 1028.8 2.4
21/06:30am 11.1 7.9 10.0 93 0.6 SW 17 26 9 14 1028.2 - 1.2
21/06:00am 12.2 10.8 10.8 91 0.7 SW 9 20 5 11 1028.1 1028.1 0.2
21/05:30am 11.3 8.6 10.4 94 0.5 SW 15 22 8 12 1027.9 - 0.2
21/05:00am 11.8 9.6 10.7 93 0.6 WSW 13 22 7 12 1027.8 1027.8 0.2
21/04:30am 11.8 9.8 10.0 89 0.9 WSW 11 22 6 12 1027.8 - 0.2
21/04:00am 11.6 10.0 10.2 91 0.7 SSW 9 15 5 8 1027.7 1027.7 0.2
21/03:30am 12.1 8.9 10.0 87 1.1 SSE 17 30 9 16 1027.5 - 0.0
21/03:00am 12.6 10.4 9.4 81 1.6 SW 11 20 6 11 1027.0 1027.0 0.0
21/02:30am 12.0 10.1 9.0 82 1.5 SW 9 15 5 8 1027.3 - 0.0
21/02:00am 12.1 9.4 8.8 80 1.6 SW 13 26 7 14 1027.4 1027.4 0.0
21/01:30am 12.4 8.7 8.1 75 2.1 SW 17 24 9 13 1027.6 - 0.0
21/01:00am 13.6 10.9 7.4 66 3.0 SW 11 17 6 9 1027.3 1027.3 0.0
21/12:30am 13.5 10.4 7.3 66 3.0 S 13 22 7 12 1027.3 - 0.0
21/12:00am 13.4 10.3 7.2 66 3.0 SSW 13 24 7 13 1027.4 1027.4 0.0
 
Date/Time
EST
Temp
°C
App
Temp
°C
Dew
Point
Rel
Hum
%
Delta-T
°C
Wind Press
QNH
hPa
Press
MSL
hPa
Rain
since 9 am
mm
Dir
 
Spd
km/h
Gust
km/h
Spd
kts
Gust
kts
20/11:30pm 13.5 11.4 8.1 70 2.7 SW 9 11 5 6 1027.5 - 0.0
20/11:00pm 12.8 10.5 7.5 70 2.6 W 9 11 5 6 1027.7 1027.7 0.0
20/10:30pm 13.8 10.8 6.2 60 3.6 SSW 11 17 6 9 1027.5 - 0.0
20/10:00pm 13.6 10.2 6.0 60 3.6 S 13 20 7 11 1027.4 1027.4 0.0
20/09:30pm 13.7 10.1 6.8 63 3.3 S 15 26 8 14 1027.5 - 0.0
20/09:00pm 13.6 10.3 6.5 62 3.4 S 13 22 7 12 1027.5 1027.5 0.0
20/08:30pm 13.5 9.9 6.8 64 3.2 S 15 26 8 14 1027.2 - 0.0
20/08:00pm 13.6 10.0 6.7 63 3.3 S 15 22 8 12 1027.0 1027.0 0.0
20/07:30pm 13.5 9.9 6.6 63 3.3 SSE 15 26 8 14 1026.8 - 0.0
20/07:00pm 13.4 9.5 7.2 66 3.0 SSE 17 28 9 15 1026.5 1026.5 0.0
20/06:30pm 13.4 9.2 7.4 67 2.9 S 19 28 10 15 1026.2 - 0.0
20/06:00pm 13.4 9.1 7.2 66 3.0 S 19 28 10 15 1026.0 1026.0 0.0
20/05:30pm 13.3 9.3 6.6 64 3.2 S 17 28 9 15 1025.8 - 0.0
20/05:00pm 13.4 8.8 6.5 63 3.3 S 20 30 11 16 1025.4 1025.4 0.0
20/04:30pm 13.6 8.6 6.5 62 3.4 S 22 32 12 17 1025.2 - 0.0
20/04:00pm 13.6 9.2 7.2 65 3.1 S 20 32 11 17 1024.9 1024.9 0.0
20/03:30pm 13.7 9.1 6.6 62 3.4 S 20 35 11 19 1024.7 - 0.0
20/03:00pm 13.7 9.1 6.3 61 3.5 S 20 30 11 16 1024.6 1024.6 0.0
20/02:30pm 13.6 8.5 6.0 60 3.6 S 22 30 12 16 1024.4 - 0.0
20/02:00pm 13.5 8.3 5.7 59 3.7 S 22 33 12 18 1024.3 1024.3 0.0
20/01:30pm 13.8 8.5 6.7 62 3.4 SSW 24 32 13 17 1024.4 - 0.0
20/01:00pm 13.5 8.3 5.4 58 3.8 SSW 22 35 12 19 1024.4 1024.4 0.0
20/12:30pm 13.5 8.6 5.2 57 3.9 SSW 20 33 11 18 1024.6 - 0.0
20/12:00pm 13.2 8.2 4.6 56 3.9 SSW 20 33 11 18 1024.9 1024.9 0.0
20/11:30am 13.2 7.9 4.9 57 3.9 SSW 22 39 12 21 1025.0 - 0.0
20/11:00am 12.9 6.7 4.3 56 3.9 SSW 26 35 14 19 1025.1 1025.1 0.0
20/10:30am 12.6 7.0 5.3 61 3.4 SSW 24 35 13 19 1025.3 - 0.0
20/10:00am 12.4 6.3 4.6 59 3.6 SSW 26 41 14 22 1024.9 1024.9 0.0
20/09:30am 12.4 6.7 4.9 60 3.5 SSW 24 39 13 21 1024.8 - 0.0

Other Formats:

Comma delimited format used in spreadsheet applications
http://www.bom.gov.au/fwo/IDN60801/IDN60801.95940.axf

JavaScript Object Notation format (JSON) in row-major order
http://www.bom.gov.au/fwo/IDN60801/IDN60801.95940.json